sensor_id;sensor_type;location;lat;lon;timestamp;P1;durP1;ratioP1;P2;durP2;ratioP2
12202;SDS011;6164;42.178;24.622;2023-05-07T00:01:14;7.35;;;5.38;;
12202;SDS011;6164;42.178;24.622;2023-05-07T00:03:41;8.38;;;5.53;;
12202;SDS011;6164;42.178;24.622;2023-05-07T00:06:08;7.78;;;5.30;;
12202;SDS011;6164;42.178;24.622;2023-05-07T00:08:37;6.30;;;5.68;;
12202;SDS011;6164;42.178;24.622;2023-05-07T00:11:05;7.93;;;5.25;;
12202;SDS011;6164;42.178;24.622;2023-05-07T00:13:32;6.78;;;5.20;;
12202;SDS011;6164;42.178;24.622;2023-05-07T00:16:00;6.50;;;4.90;;
12202;SDS011;6164;42.178;24.622;2023-05-07T00:18:27;7.22;;;5.55;;
12202;SDS011;6164;42.178;24.622;2023-05-07T00:20:54;6.30;;;5.22;;
12202;SDS011;6164;42.178;24.622;2023-05-07T00:23:21;7.78;;;5.30;;
12202;SDS011;6164;42.178;24.622;2023-05-07T00:25:48;10.90;;;5.20;;
12202;SDS011;6164;42.178;24.622;2023-05-07T00:28:16;7.88;;;5.70;;
12202;SDS011;6164;42.178;24.622;2023-05-07T00:30:43;7.68;;;5.13;;
12202;SDS011;6164;42.178;24.622;2023-05-07T00:33:09;7.88;;;5.32;;
12202;SDS011;6164;42.178;24.622;2023-05-07T00:35:36;7.97;;;5.38;;
12202;SDS011;6164;42.178;24.622;2023-05-07T00:38:03;5.38;;;4.88;;
12202;SDS011;6164;42.178;24.622;2023-05-07T00:40:29;6.20;;;4.95;;
12202;SDS011;6164;42.178;24.622;2023-05-07T00:42:56;6.90;;;5.00;;
12202;SDS011;6164;42.178;24.622;2023-05-07T00:45:26;7.25;;;5.50;;
12202;SDS011;6164;42.178;24.622;2023-05-07T00:47:54;8.60;;;5.80;;
12202;SDS011;6164;42.178;24.622;2023-05-07T00:50:22;9.20;;;6.40;;
12202;SDS011;6164;42.178;24.622;2023-05-07T00:52:48;9.57;;;6.70;;
12202;SDS011;6164;42.178;24.622;2023-05-07T00:55:15;9.77;;;6.30;;
12202;SDS011;6164;42.178;24.622;2023-05-07T00:57:42;6.85;;;5.55;;
12202;SDS011;6164;42.178;24.622;2023-05-07T01:00:10;5.82;;;5.20;;
12202;SDS011;6164;42.178;24.622;2023-05-07T01:02:39;8.02;;;5.90;;
12202;SDS011;6164;42.178;24.622;2023-05-07T01:05:06;6.07;;;5.20;;
12202;SDS011;6164;42.178;24.622;2023-05-07T01:07:36;6.90;;;5.28;;
12202;SDS011;6164;42.178;24.622;2023-05-07T01:10:05;7.35;;;5.72;;
12202;SDS011;6164;42.178;24.622;2023-05-07T01:12:33;11.30;;;6.13;;
12202;SDS011;6164;42.178;24.622;2023-05-07T01:15:01;7.57;;;5.57;;
12202;SDS011;6164;42.178;24.622;2023-05-07T01:17:28;5.78;;;5.13;;
12202;SDS011;6164;42.178;24.622;2023-05-07T01:19:57;7.70;;;5.50;;
12202;SDS011;6164;42.178;24.622;2023-05-07T01:22:28;8.32;;;5.05;;
12202;SDS011;6164;42.178;24.622;2023-05-07T01:24:57;7.18;;;5.28;;
12202;SDS011;6164;42.178;24.622;2023-05-07T01:27:24;8.35;;;5.65;;
12202;SDS011;6164;42.178;24.622;2023-05-07T01:29:51;7.25;;;5.53;;
12202;SDS011;6164;42.178;24.622;2023-05-07T01:32:18;8.32;;;5.43;;
12202;SDS011;6164;42.178;24.622;2023-05-07T01:34:51;5.80;;;4.80;;
12202;SDS011;6164;42.178;24.622;2023-05-07T01:37:19;6.13;;;5.18;;
12202;SDS011;6164;42.178;24.622;2023-05-07T01:39:49;7.25;;;5.82;;
12202;SDS011;6164;42.178;24.622;2023-05-07T01:42:15;7.07;;;6.18;;
12202;SDS011;6164;42.178;24.622;2023-05-07T01:44:42;8.90;;;5.93;;
12202;SDS011;6164;42.178;24.622;2023-05-07T01:47:09;8.63;;;5.95;;
12202;SDS011;6164;42.178;24.622;2023-05-07T01:49:36;7.05;;;5.82;;
12202;SDS011;6164;42.178;24.622;2023-05-07T01:52:03;9.48;;;6.25;;
12202;SDS011;6164;42.178;24.622;2023-05-07T01:54:30;8.20;;;6.13;;
12202;SDS011;6164;42.178;24.622;2023-05-07T01:56:58;9.13;;;6.30;;
12202;SDS011;6164;42.178;24.622;2023-05-07T01:59:25;10.82;;;6.57;;
12202;SDS011;6164;42.178;24.622;2023-05-07T02:01:52;6.95;;;6.28;;
12202;SDS011;6164;42.178;24.622;2023-05-07T02:04:19;7.40;;;6.65;;
12202;SDS011;6164;42.178;24.622;2023-05-07T02:06:46;12.45;;;6.50;;
12202;SDS011;6164;42.178;24.622;2023-05-07T02:09:13;10.20;;;6.40;;
12202;SDS011;6164;42.178;24.622;2023-05-07T02:11:41;7.60;;;6.90;;
12202;SDS011;6164;42.178;24.622;2023-05-07T02:14:09;9.52;;;6.95;;
12202;SDS011;6164;42.178;24.622;2023-05-07T02:16:36;6.97;;;6.28;;
12202;SDS011;6164;42.178;24.622;2023-05-07T02:19:02;7.38;;;6.55;;
12202;SDS011;6164;42.178;24.622;2023-05-07T02:21:30;7.32;;;6.50;;
12202;SDS011;6164;42.178;24.622;2023-05-07T02:23:57;9.77;;;7.22;;
12202;SDS011;6164;42.178;24.622;2023-05-07T02:26:23;7.90;;;7.00;;
12202;SDS011;6164;42.178;24.622;2023-05-07T02:28:50;8.85;;;7.70;;
12202;SDS011;6164;42.178;24.622;2023-05-07T02:31:20;9.13;;;6.85;;
12202;SDS011;6164;42.178;24.622;2023-05-07T02:33:46;8.85;;;7.10;;
12202;SDS011;6164;42.178;24.622;2023-05-07T02:36:13;8.50;;;7.15;;
12202;SDS011;6164;42.178;24.622;2023-05-07T02:38:40;7.93;;;7.13;;
12202;SDS011;6164;42.178;24.622;2023-05-07T02:41:07;9.00;;;7.18;;
12202;SDS011;6164;42.178;24.622;2023-05-07T02:43:33;9.52;;;8.25;;
12202;SDS011;6164;42.178;24.622;2023-05-07T02:46:01;9.60;;;7.43;;
12202;SDS011;6164;42.178;24.622;2023-05-07T02:48:30;8.48;;;7.22;;
12202;SDS011;6164;42.178;24.622;2023-05-07T02:50:56;8.18;;;7.32;;
12202;SDS011;6164;42.178;24.622;2023-05-07T02:53:23;8.32;;;7.53;;
12202;SDS011;6164;42.178;24.622;2023-05-07T02:55:56;8.25;;;7.45;;
12202;SDS011;6164;42.178;24.622;2023-05-07T02:58:23;8.93;;;7.35;;
12202;SDS011;6164;42.178;24.622;2023-05-07T03:00:51;11.20;;;7.95;;
12202;SDS011;6164;42.178;24.622;2023-05-07T03:03:19;9.73;;;8.05;;
12202;SDS011;6164;42.178;24.622;2023-05-07T03:05:47;10.55;;;7.95;;
12202;SDS011;6164;42.178;24.622;2023-05-07T03:08:14;11.13;;;7.68;;
12202;SDS011;6164;42.178;24.622;2023-05-07T03:10:41;11.45;;;8.40;;
12202;SDS011;6164;42.178;24.622;2023-05-07T03:13:08;9.98;;;8.43;;
12202;SDS011;6164;42.178;24.622;2023-05-07T03:15:34;8.82;;;7.85;;
12202;SDS011;6164;42.178;24.622;2023-05-07T03:18:01;9.38;;;7.97;;
12202;SDS011;6164;42.178;24.622;2023-05-07T03:20:28;10.32;;;8.25;;
12202;SDS011;6164;42.178;24.622;2023-05-07T03:22:56;11.52;;;8.27;;
12202;SDS011;6164;42.178;24.622;2023-05-07T03:25:23;10.52;;;8.73;;
12202;SDS011;6164;42.178;24.622;2023-05-07T03:27:50;11.55;;;8.90;;
12202;SDS011;6164;42.178;24.622;2023-05-07T03:30:16;11.32;;;9.25;;
12202;SDS011;6164;42.178;24.622;2023-05-07T03:32:43;12.40;;;8.65;;
12202;SDS011;6164;42.178;24.622;2023-05-07T03:35:10;11.68;;;9.30;;
12202;SDS011;6164;42.178;24.622;2023-05-07T03:37:37;12.65;;;9.77;;
12202;SDS011;6164;42.178;24.622;2023-05-07T03:40:06;10.82;;;9.32;;
12202;SDS011;6164;42.178;24.622;2023-05-07T03:42:35;12.00;;;9.15;;
12202;SDS011;6164;42.178;24.622;2023-05-07T03:45:01;13.27;;;10.30;;
12202;SDS011;6164;42.178;24.622;2023-05-07T03:47:29;13.95;;;10.23;;
12202;SDS011;6164;42.178;24.622;2023-05-07T03:49:55;12.63;;;10.15;;
12202;SDS011;6164;42.178;24.622;2023-05-07T03:52:22;11.32;;;9.77;;
12202;SDS011;6164;42.178;24.622;2023-05-07T03:54:51;13.93;;;10.02;;
12202;SDS011;6164;42.178;24.622;2023-05-07T03:57:19;13.00;;;9.82;;
12202;SDS011;6164;42.178;24.622;2023-05-07T03:59:46;11.60;;;9.50;;
12202;SDS011;6164;42.178;24.622;2023-05-07T04:02:12;10.07;;;9.07;;
12202;SDS011;6164;42.178;24.622;2023-05-07T04:04:39;10.93;;;9.80;;
12202;SDS011;6164;42.178;24.622;2023-05-07T04:07:06;12.45;;;10.00;;
12202;SDS011;6164;42.178;24.622;2023-05-07T04:09:33;10.80;;;9.70;;
12202;SDS011;6164;42.178;24.622;2023-05-07T04:11:59;9.80;;;8.30;;
12202;SDS011;6164;42.178;24.622;2023-05-07T04:14:27;9.55;;;8.65;;
12202;SDS011;6164;42.178;24.622;2023-05-07T04:16:55;11.15;;;9.25;;
12202;SDS011;6164;42.178;24.622;2023-05-07T04:19:22;8.82;;;8.02;;
12202;SDS011;6164;42.178;24.622;2023-05-07T04:21:48;11.35;;;9.50;;
12202;SDS011;6164;42.178;24.622;2023-05-07T04:24:15;9.75;;;8.75;;
12202;SDS011;6164;42.178;24.622;2023-05-07T04:26:42;11.35;;;9.45;;
12202;SDS011;6164;42.178;24.622;2023-05-07T04:29:08;11.93;;;9.38;;
12202;SDS011;6164;42.178;24.622;2023-05-07T04:31:37;10.40;;;9.40;;
12202;SDS011;6164;42.178;24.622;2023-05-07T04:34:05;11.32;;;8.93;;
12202;SDS011;6164;42.178;24.622;2023-05-07T04:36:32;9.88;;;8.88;;
12202;SDS011;6164;42.178;24.622;2023-05-07T04:38:59;12.13;;;9.90;;
12202;SDS011;6164;42.178;24.622;2023-05-07T04:41:25;11.35;;;10.15;;
12202;SDS011;6164;42.178;24.622;2023-05-07T04:43:52;12.60;;;10.15;;
12202;SDS011;6164;42.178;24.622;2023-05-07T04:46:19;13.15;;;10.45;;
12202;SDS011;6164;42.178;24.622;2023-05-07T04:48:47;15.23;;;10.32;;
12202;SDS011;6164;42.178;24.622;2023-05-07T04:51:14;11.70;;;10.48;;
12202;SDS011;6164;42.178;24.622;2023-05-07T04:53:41;10.60;;;9.60;;
12202;SDS011;6164;42.178;24.622;2023-05-07T04:56:08;12.60;;;9.07;;
12202;SDS011;6164;42.178;24.622;2023-05-07T04:58:35;12.07;;;9.25;;
12202;SDS011;6164;42.178;24.622;2023-05-07T05:01:01;10.05;;;8.65;;
12202;SDS011;6164;42.178;24.622;2023-05-07T05:03:28;12.27;;;9.43;;
12202;SDS011;6164;42.178;24.622;2023-05-07T05:05:57;10.68;;;9.18;;
12202;SDS011;6164;42.178;24.622;2023-05-07T05:08:24;10.48;;;8.80;;
12202;SDS011;6164;42.178;24.622;2023-05-07T05:10:51;10.65;;;8.85;;
12202;SDS011;6164;42.178;24.622;2023-05-07T05:13:18;11.70;;;9.38;;
12202;SDS011;6164;42.178;24.622;2023-05-07T05:15:45;14.70;;;9.52;;
12202;SDS011;6164;42.178;24.622;2023-05-07T05:18:12;10.18;;;9.00;;
12202;SDS011;6164;42.178;24.622;2023-05-07T05:20:38;11.80;;;8.75;;
12202;SDS011;6164;42.178;24.622;2023-05-07T05:23:07;9.85;;;8.85;;
12202;SDS011;6164;42.178;24.622;2023-05-07T05:25:34;10.80;;;8.30;;
12202;SDS011;6164;42.178;24.622;2023-05-07T05:28:01;9.38;;;8.15;;
12202;SDS011;6164;42.178;24.622;2023-05-07T05:30:27;13.35;;;8.90;;
12202;SDS011;6164;42.178;24.622;2023-05-07T05:32:54;11.93;;;8.02;;
12202;SDS011;6164;42.178;24.622;2023-05-07T05:35:21;10.07;;;8.23;;
12202;SDS011;6164;42.178;24.622;2023-05-07T05:37:47;9.05;;;7.78;;
12202;SDS011;6164;42.178;24.622;2023-05-07T05:40:15;10.50;;;8.18;;
12202;SDS011;6164;42.178;24.622;2023-05-07T05:42:42;13.32;;;8.55;;
12202;SDS011;6164;42.178;24.622;2023-05-07T05:45:09;10.20;;;8.25;;
12202;SDS011;6164;42.178;24.622;2023-05-07T05:47:36;7.88;;;6.75;;
12202;SDS011;6164;42.178;24.622;2023-05-07T05:50:04;9.55;;;7.55;;
12202;SDS011;6164;42.178;24.622;2023-05-07T05:52:32;11.35;;;6.82;;
12202;SDS011;6164;42.178;24.622;2023-05-07T05:54:58;10.40;;;7.60;;
12202;SDS011;6164;42.178;24.622;2023-05-07T05:57:26;10.80;;;7.05;;
12202;SDS011;6164;42.178;24.622;2023-05-07T05:59:53;9.18;;;6.55;;
12202;SDS011;6164;42.178;24.622;2023-05-07T06:02:20;9.57;;;6.75;;
12202;SDS011;6164;42.178;24.622;2023-05-07T06:04:46;9.75;;;7.20;;
12202;SDS011;6164;42.178;24.622;2023-05-07T06:07:13;10.98;;;6.85;;
12202;SDS011;6164;42.178;24.622;2023-05-07T06:09:40;9.70;;;6.35;;
12202;SDS011;6164;42.178;24.622;2023-05-07T06:12:07;10.85;;;6.20;;
12202;SDS011;6164;42.178;24.622;2023-05-07T06:14:35;10.55;;;6.45;;
12202;SDS011;6164;42.178;24.622;2023-05-07T06:17:01;8.18;;;6.65;;
12202;SDS011;6164;42.178;24.622;2023-05-07T06:19:28;9.40;;;6.80;;
12202;SDS011;6164;42.178;24.622;2023-05-07T06:21:55;7.70;;;6.00;;
12202;SDS011;6164;42.178;24.622;2023-05-07T06:24:22;9.55;;;6.47;;
12202;SDS011;6164;42.178;24.622;2023-05-07T06:26:49;9.55;;;6.38;;
12202;SDS011;6164;42.178;24.622;2023-05-07T06:29:16;8.38;;;6.55;;
12202;SDS011;6164;42.178;24.622;2023-05-07T06:31:44;8.30;;;5.93;;
12202;SDS011;6164;42.178;24.622;2023-05-07T06:34:11;8.75;;;5.78;;
12202;SDS011;6164;42.178;24.622;2023-05-07T06:36:39;6.82;;;6.10;;
12202;SDS011;6164;42.178;24.622;2023-05-07T06:39:06;8.10;;;6.30;;
12202;SDS011;6164;42.178;24.622;2023-05-07T06:41:32;8.45;;;6.35;;
12202;SDS011;6164;42.178;24.622;2023-05-07T06:43:59;9.75;;;5.72;;
12202;SDS011;6164;42.178;24.622;2023-05-07T06:46:26;7.03;;;5.82;;
12202;SDS011;6164;42.178;24.622;2023-05-07T06:48:57;6.93;;;6.22;;
12202;SDS011;6164;42.178;24.622;2023-05-07T06:51:24;6.63;;;5.93;;
12202;SDS011;6164;42.178;24.622;2023-05-07T06:53:51;11.52;;;6.47;;
12202;SDS011;6164;42.178;24.622;2023-05-07T06:56:18;6.60;;;5.90;;
12202;SDS011;6164;42.178;24.622;2023-05-07T06:58:46;8.88;;;6.47;;
12202;SDS011;6164;42.178;24.622;2023-05-07T07:01:12;8.70;;;5.65;;
12202;SDS011;6164;42.178;24.622;2023-05-07T07:03:40;7.15;;;5.88;;
12202;SDS011;6164;42.178;24.622;2023-05-07T07:06:08;9.75;;;6.00;;
12202;SDS011;6164;42.178;24.622;2023-05-07T07:08:35;6.50;;;5.90;;
12202;SDS011;6164;42.178;24.622;2023-05-07T07:11:03;7.63;;;5.63;;
12202;SDS011;6164;42.178;24.622;2023-05-07T07:13:30;8.77;;;5.22;;
12202;SDS011;6164;42.178;24.622;2023-05-07T07:15:57;5.90;;;5.20;;
12202;SDS011;6164;42.178;24.622;2023-05-07T07:18:23;8.35;;;4.88;;
12202;SDS011;6164;42.178;24.622;2023-05-07T07:20:50;11.52;;;5.68;;
12202;SDS011;6164;42.178;24.622;2023-05-07T07:23:18;9.52;;;5.90;;
12202;SDS011;6164;42.178;24.622;2023-05-07T07:25:45;7.22;;;5.50;;
12202;SDS011;6164;42.178;24.622;2023-05-07T07:28:12;6.15;;;4.90;;
12202;SDS011;6164;42.178;24.622;2023-05-07T07:30:39;9.23;;;5.13;;
12202;SDS011;6164;42.178;24.622;2023-05-07T07:33:06;8.50;;;5.47;;
12202;SDS011;6164;42.178;24.622;2023-05-07T07:35:32;10.32;;;5.30;;
12202;SDS011;6164;42.178;24.622;2023-05-07T07:37:59;10.10;;;5.75;;
12202;SDS011;6164;42.178;24.622;2023-05-07T07:40:27;7.82;;;5.70;;
12202;SDS011;6164;42.178;24.622;2023-05-07T07:42:54;6.03;;;5.18;;
12202;SDS011;6164;42.178;24.622;2023-05-07T07:45:21;8.77;;;5.30;;
12202;SDS011;6164;42.178;24.622;2023-05-07T07:47:48;6.43;;;5.18;;
12202;SDS011;6164;42.178;24.622;2023-05-07T07:50:15;6.90;;;5.70;;
12202;SDS011;6164;42.178;24.622;2023-05-07T07:52:41;7.15;;;5.10;;
12202;SDS011;6164;42.178;24.622;2023-05-07T07:55:08;9.55;;;5.63;;
12202;SDS011;6164;42.178;24.622;2023-05-07T07:57:36;8.82;;;5.07;;
12202;SDS011;6164;42.178;24.622;2023-05-07T08:00:04;7.68;;;4.93;;
12202;SDS011;6164;42.178;24.622;2023-05-07T08:02:32;5.47;;;4.93;;
12202;SDS011;6164;42.178;24.622;2023-05-07T08:04:59;5.70;;;4.97;;
12202;SDS011;6164;42.178;24.622;2023-05-07T08:07:25;8.40;;;5.10;;
12202;SDS011;6164;42.178;24.622;2023-05-07T08:09:52;6.32;;;4.38;;
12202;SDS011;6164;42.178;24.622;2023-05-07T08:12:19;6.30;;;4.47;;
12202;SDS011;6164;42.178;24.622;2023-05-07T08:14:47;7.72;;;5.03;;
12202;SDS011;6164;42.178;24.622;2023-05-07T08:17:14;7.85;;;4.95;;
12202;SDS011;6164;42.178;24.622;2023-05-07T08:19:41;7.53;;;4.72;;
12202;SDS011;6164;42.178;24.622;2023-05-07T08:22:08;5.32;;;4.57;;
12202;SDS011;6164;42.178;24.622;2023-05-07T08:24:35;6.00;;;4.40;;
12202;SDS011;6164;42.178;24.622;2023-05-07T08:27:02;6.93;;;4.30;;
12202;SDS011;6164;42.178;24.622;2023-05-07T08:29:29;7.70;;;4.18;;
12202;SDS011;6164;42.178;24.622;2023-05-07T08:31:57;4.53;;;4.10;;
12202;SDS011;6164;42.178;24.622;2023-05-07T08:34:24;7.97;;;4.70;;
12202;SDS011;6164;42.178;24.622;2023-05-07T08:36:51;6.75;;;4.75;;
12202;SDS011;6164;42.178;24.622;2023-05-07T08:39:18;6.20;;;4.75;;
12202;SDS011;6164;42.178;24.622;2023-05-07T08:41:44;7.75;;;4.72;;
12202;SDS011;6164;42.178;24.622;2023-05-07T08:44:12;5.53;;;4.38;;
12202;SDS011;6164;42.178;24.622;2023-05-07T08:46:40;5.78;;;3.78;;
12202;SDS011;6164;42.178;24.622;2023-05-07T08:49:09;12.13;;;10.52;;
12202;SDS011;6164;42.178;24.622;2023-05-07T08:51:36;6.50;;;4.07;;
12202;SDS011;6164;42.178;24.622;2023-05-07T08:54:04;5.28;;;4.43;;
12202;SDS011;6164;42.178;24.622;2023-05-07T08:56:32;8.95;;;4.85;;
12202;SDS011;6164;42.178;24.622;2023-05-07T08:58:59;6.82;;;4.93;;
12202;SDS011;6164;42.178;24.622;2023-05-07T09:01:25;8.90;;;5.50;;
12202;SDS011;6164;42.178;24.622;2023-05-07T09:03:52;7.63;;;4.65;;
12202;SDS011;6164;42.178;24.622;2023-05-07T09:06:21;7.18;;;3.97;;
12202;SDS011;6164;42.178;24.622;2023-05-07T09:08:51;4.97;;;4.25;;
12202;SDS011;6164;42.178;24.622;2023-05-07T09:11:21;5.40;;;4.30;;
12202;SDS011;6164;42.178;24.622;2023-05-07T09:13:48;6.18;;;4.40;;
12202;SDS011;6164;42.178;24.622;2023-05-07T09:16:15;5.32;;;4.18;;
12202;SDS011;6164;42.178;24.622;2023-05-07T09:18:42;4.93;;;4.25;;
12202;SDS011;6164;42.178;24.622;2023-05-07T09:21:10;5.28;;;3.88;;
12202;SDS011;6164;42.178;24.622;2023-05-07T09:23:39;4.85;;;3.70;;
12202;SDS011;6164;42.178;24.622;2023-05-07T09:26:06;6.57;;;3.58;;
12202;SDS011;6164;42.178;24.622;2023-05-07T09:28:37;6.65;;;3.80;;
12202;SDS011;6164;42.178;24.622;2023-05-07T09:31:06;4.25;;;3.42;;
12202;SDS011;6164;42.178;24.622;2023-05-07T09:33:33;6.47;;;3.50;;
12202;SDS011;6164;42.178;24.622;2023-05-07T09:36:01;3.53;;;3.22;;
12202;SDS011;6164;42.178;24.622;2023-05-07T09:38:29;4.63;;;3.65;;
12202;SDS011;6164;42.178;24.622;2023-05-07T09:41:04;4.50;;;2.97;;
12202;SDS011;6164;42.178;24.622;2023-05-07T09:43:32;5.32;;;3.13;;
12202;SDS011;6164;42.178;24.622;2023-05-07T09:46:01;9.77;;;3.75;;
12202;SDS011;6164;42.178;24.622;2023-05-07T09:48:29;5.63;;;3.50;;
12202;SDS011;6164;42.178;24.622;2023-05-07T09:50:56;8.75;;;3.50;;
12202;SDS011;6164;42.178;24.622;2023-05-07T09:53:28;8.38;;;3.45;;
12202;SDS011;6164;42.178;24.622;2023-05-07T09:55:56;6.55;;;3.13;;
12202;SDS011;6164;42.178;24.622;2023-05-07T09:58:26;4.68;;;3.45;;
12202;SDS011;6164;42.178;24.622;2023-05-07T10:00:54;3.72;;;3.22;;
12202;SDS011;6164;42.178;24.622;2023-05-07T10:03:24;4.18;;;3.38;;
12202;SDS011;6164;42.178;24.622;2023-05-07T10:05:53;3.55;;;3.25;;
12202;SDS011;6164;42.178;24.622;2023-05-07T10:08:21;5.25;;;3.35;;
12202;SDS011;6164;42.178;24.622;2023-05-07T10:10:47;7.18;;;3.60;;
12202;SDS011;6164;42.178;24.622;2023-05-07T10:13:15;4.07;;;3.08;;
12202;SDS011;6164;42.178;24.622;2023-05-07T10:15:44;4.82;;;3.03;;
12202;SDS011;6164;42.178;24.622;2023-05-07T10:18:11;5.15;;;2.97;;
12202;SDS011;6164;42.178;24.622;2023-05-07T10:20:38;6.53;;;3.50;;
12202;SDS011;6164;42.178;24.622;2023-05-07T10:23:10;5.47;;;2.97;;
12202;SDS011;6164;42.178;24.622;2023-05-07T10:25:40;5.00;;;3.10;;
12202;SDS011;6164;42.178;24.622;2023-05-07T10:28:07;4.55;;;3.05;;
12202;SDS011;6164;42.178;24.622;2023-05-07T10:30:39;4.00;;;2.78;;
12202;SDS011;6164;42.178;24.622;2023-05-07T10:33:19;3.67;;;3.38;;
12202;SDS011;6164;42.178;24.622;2023-05-07T10:35:51;4.00;;;3.38;;
12202;SDS011;6164;42.178;24.622;2023-05-07T10:38:24;4.45;;;3.05;;
12202;SDS011;6164;42.178;24.622;2023-05-07T10:40:51;4.57;;;3.30;;
12202;SDS011;6164;42.178;24.622;2023-05-07T10:43:18;4.38;;;3.30;;
12202;SDS011;6164;42.178;24.622;2023-05-07T10:45:51;4.35;;;2.85;;
12202;SDS011;6164;42.178;24.622;2023-05-07T10:48:38;4.80;;;3.30;;
12202;SDS011;6164;42.178;24.622;2023-05-07T10:51:36;4.30;;;3.63;;
12202;SDS011;6164;42.178;24.622;2023-05-07T10:56:49;3.28;;;2.95;;
12202;SDS011;6164;42.178;24.622;2023-05-07T10:59:34;3.30;;;3.00;;
12202;SDS011;6164;42.178;24.622;2023-05-07T11:02:08;7.00;;;3.08;;
12202;SDS011;6164;42.178;24.622;2023-05-07T11:04:36;4.93;;;3.33;;
12202;SDS011;6164;42.178;24.622;2023-05-07T11:10:03;4.63;;;2.70;;
12202;SDS011;6164;42.178;24.622;2023-05-07T11:12:47;4.72;;;2.90;;
12202;SDS011;6164;42.178;24.622;2023-05-07T11:18:12;4.28;;;3.15;;
12202;SDS011;6164;42.178;24.622;2023-05-07T11:20:53;4.43;;;3.20;;
12202;SDS011;6164;42.178;24.622;2023-05-07T11:26:43;4.22;;;2.95;;
12202;SDS011;6164;42.178;24.622;2023-05-07T11:29:12;3.90;;;2.50;;
12202;SDS011;6164;42.178;24.622;2023-05-07T11:31:39;3.33;;;2.50;;
12202;SDS011;6164;42.178;24.622;2023-05-07T11:34:08;4.30;;;3.88;;
12202;SDS011;6164;42.178;24.622;2023-05-07T11:36:35;3.55;;;2.55;;
12202;SDS011;6164;42.178;24.622;2023-05-07T11:39:02;3.25;;;2.80;;
12202;SDS011;6164;42.178;24.622;2023-05-07T11:41:34;4.32;;;2.70;;
12202;SDS011;6164;42.178;24.622;2023-05-07T11:44:02;5.10;;;3.00;;
12202;SDS011;6164;42.178;24.622;2023-05-07T11:46:29;3.38;;;2.53;;
12202;SDS011;6164;42.178;24.622;2023-05-07T11:48:56;5.13;;;2.47;;
12202;SDS011;6164;42.178;24.622;2023-05-07T11:51:24;3.30;;;3.00;;
12202;SDS011;6164;42.178;24.622;2023-05-07T11:53:52;3.08;;;2.63;;
12202;SDS011;6164;42.178;24.622;2023-05-07T11:56:19;8.65;;;3.00;;
12202;SDS011;6164;42.178;24.622;2023-05-07T11:58:46;2.85;;;2.40;;
12202;SDS011;6164;42.178;24.622;2023-05-07T12:01:14;2.97;;;2.50;;
12202;SDS011;6164;42.178;24.622;2023-05-07T12:03:44;3.38;;;2.63;;
12202;SDS011;6164;42.178;24.622;2023-05-07T12:06:12;11.88;;;3.47;;
12202;SDS011;6164;42.178;24.622;2023-05-07T12:08:42;8.07;;;2.80;;
12202;SDS011;6164;42.178;24.622;2023-05-07T12:11:10;10.23;;;2.60;;
12202;SDS011;6164;42.178;24.622;2023-05-07T12:13:39;7.38;;;2.88;;
12202;SDS011;6164;42.178;24.622;2023-05-07T12:16:07;4.00;;;2.60;;
12202;SDS011;6164;42.178;24.622;2023-05-07T12:18:34;3.20;;;2.90;;
12202;SDS011;6164;42.178;24.622;2023-05-07T12:21:02;2.67;;;2.47;;
12202;SDS011;6164;42.178;24.622;2023-05-07T12:23:31;3.47;;;2.40;;
12202;SDS011;6164;42.178;24.622;2023-05-07T12:25:59;3.30;;;2.65;;
12202;SDS011;6164;42.178;24.622;2023-05-07T12:28:26;3.30;;;2.60;;
12202;SDS011;6164;42.178;24.622;2023-05-07T12:30:53;5.40;;;2.53;;
12202;SDS011;6164;42.178;24.622;2023-05-07T12:33:23;5.82;;;2.70;;
12202;SDS011;6164;42.178;24.622;2023-05-07T12:35:50;4.20;;;2.63;;
12202;SDS011;6164;42.178;24.622;2023-05-07T12:38:20;5.30;;;2.85;;
12202;SDS011;6164;42.178;24.622;2023-05-07T12:40:47;2.88;;;2.58;;
12202;SDS011;6164;42.178;24.622;2023-05-07T12:43:17;3.03;;;2.72;;
12202;SDS011;6164;42.178;24.622;2023-05-07T12:45:45;3.03;;;2.53;;
12202;SDS011;6164;42.178;24.622;2023-05-07T12:48:13;4.57;;;2.80;;
12202;SDS011;6164;42.178;24.622;2023-05-07T12:50:40;4.78;;;2.90;;
12202;SDS011;6164;42.178;24.622;2023-05-07T12:53:07;5.00;;;2.90;;
12202;SDS011;6164;42.178;24.622;2023-05-07T12:55:42;3.95;;;2.58;;
12202;SDS011;6164;42.178;24.622;2023-05-07T12:58:24;5.88;;;2.75;;
12202;SDS011;6164;42.178;24.622;2023-05-07T13:00:51;5.65;;;2.90;;
12202;SDS011;6164;42.178;24.622;2023-05-07T13:03:22;4.15;;;2.80;;
12202;SDS011;6164;42.178;24.622;2023-05-07T13:05:50;4.43;;;2.60;;
12202;SDS011;6164;42.178;24.622;2023-05-07T13:08:23;4.18;;;3.10;;
12202;SDS011;6164;42.178;24.622;2023-05-07T13:10:51;4.63;;;2.75;;
12202;SDS011;6164;42.178;24.622;2023-05-07T13:13:18;3.10;;;2.80;;
12202;SDS011;6164;42.178;24.622;2023-05-07T13:15:48;3.25;;;2.95;;
12202;SDS011;6164;42.178;24.622;2023-05-07T13:18:15;3.08;;;2.60;;
12202;SDS011;6164;42.178;24.622;2023-05-07T13:20:42;5.15;;;2.90;;
12202;SDS011;6164;42.178;24.622;2023-05-07T13:23:08;3.72;;;2.92;;
12202;SDS011;6164;42.178;24.622;2023-05-07T13:25:35;2.97;;;2.67;;
12202;SDS011;6164;42.178;24.622;2023-05-07T13:28:02;4.25;;;2.47;;
12202;SDS011;6164;42.178;24.622;2023-05-07T13:30:29;4.13;;;3.05;;
12202;SDS011;6164;42.178;24.622;2023-05-07T13:32:57;3.72;;;2.70;;
12202;SDS011;6164;42.178;24.622;2023-05-07T13:35:24;5.68;;;3.13;;
12202;SDS011;6164;42.178;24.622;2023-05-07T13:37:51;5.13;;;3.03;;
12202;SDS011;6164;42.178;24.622;2023-05-07T13:40:19;5.35;;;2.75;;
12202;SDS011;6164;42.178;24.622;2023-05-07T13:42:46;3.33;;;2.75;;
12202;SDS011;6164;42.178;24.622;2023-05-07T13:45:13;4.82;;;2.92;;
12202;SDS011;6164;42.178;24.622;2023-05-07T13:47:40;3.38;;;2.80;;
12202;SDS011;6164;42.178;24.622;2023-05-07T13:50:09;5.40;;;2.80;;
12202;SDS011;6164;42.178;24.622;2023-05-07T13:52:36;2.53;;;2.33;;
12202;SDS011;6164;42.178;24.622;2023-05-07T13:55:03;2.90;;;2.70;;
12202;SDS011;6164;42.178;24.622;2023-05-07T13:57:30;3.15;;;2.83;;
12202;SDS011;6164;42.178;24.622;2023-05-07T13:59:57;4.40;;;2.78;;
12202;SDS011;6164;42.178;24.622;2023-05-07T14:02:24;2.83;;;2.50;;
12202;SDS011;6164;42.178;24.622;2023-05-07T14:04:50;2.83;;;2.60;;
12202;SDS011;6164;42.178;24.622;2023-05-07T14:07:18;7.32;;;2.78;;
12202;SDS011;6164;42.178;24.622;2023-05-07T14:09:45;3.40;;;2.63;;
12202;SDS011;6164;42.178;24.622;2023-05-07T14:12:12;2.55;;;2.08;;
12202;SDS011;6164;42.178;24.622;2023-05-07T14:14:38;5.28;;;2.97;;
12202;SDS011;6164;42.178;24.622;2023-05-07T14:17:05;3.05;;;2.50;;
12202;SDS011;6164;42.178;24.622;2023-05-07T14:19:33;4.80;;;2.45;;
12202;SDS011;6164;42.178;24.622;2023-05-07T14:22:00;5.05;;;2.20;;
12202;SDS011;6164;42.178;24.622;2023-05-07T14:24:28;4.70;;;2.10;;
12202;SDS011;6164;42.178;24.622;2023-05-07T14:26:55;3.88;;;2.20;;
12202;SDS011;6164;42.178;24.622;2023-05-07T14:29:22;4.60;;;2.60;;
12202;SDS011;6164;42.178;24.622;2023-05-07T14:31:49;3.15;;;2.53;;
12202;SDS011;6164;42.178;24.622;2023-05-07T14:34:15;2.47;;;2.28;;
12202;SDS011;6164;42.178;24.622;2023-05-07T14:36:42;3.95;;;2.53;;
12202;SDS011;6164;42.178;24.622;2023-05-07T14:39:09;4.15;;;2.30;;
12202;SDS011;6164;42.178;24.622;2023-05-07T14:41:37;3.45;;;2.30;;
12202;SDS011;6164;42.178;24.622;2023-05-07T14:44:04;2.78;;;2.40;;
12202;SDS011;6164;42.178;24.622;2023-05-07T14:46:31;2.47;;;2.00;;
12202;SDS011;6164;42.178;24.622;2023-05-07T14:48:57;4.30;;;2.42;;
12202;SDS011;6164;42.178;24.622;2023-05-07T14:51:24;3.65;;;2.40;;
12202;SDS011;6164;42.178;24.622;2023-05-07T14:53:53;5.10;;;2.40;;
12202;SDS011;6164;42.178;24.622;2023-05-07T14:56:19;2.58;;;2.10;;
12202;SDS011;6164;42.178;24.622;2023-05-07T14:58:48;2.72;;;2.05;;
12202;SDS011;6164;42.178;24.622;2023-05-07T15:01:14;2.67;;;2.40;;